Time;durP1;ratioP1;P1;durP2;ratioP2;P2;SDS_P1;SDS_P2;PMS_P1;PMS_P2;Temp;Humidity;BMP_temperature;BMP_pressure;BME280_temperature;BME280_humidity;BME280_pressure;Samples;Min_cycle;Max_cycle;Signal;HPM_P1;HPM_P2
2022/06/11 00:00:03;;;;;;;6.30;5.50;;;17.70;99.90;;;;;;5030733;28;20386;-70
2022/06/11 00:02:29;;;;;;;7.30;6.60;;;17.80;99.90;;;;;;5030427;28;20041;-70
2022/06/11 00:04:54;;;;;;;7.97;6.20;;;17.70;99.90;;;;;;5030742;28;20045;-70
2022/06/11 00:07:23;;;;;;;7.25;6.53;;;17.80;99.90;;;;;;5030565;28;20025;-70
2022/06/11 00:09:50;;;;;;;7.90;6.00;;;17.80;99.90;;;;;;5030285;28;20027;-70
2022/06/11 00:12:15;;;;;;;8.45;6.47;;;17.70;99.90;;;;;;5030565;28;20029;-70
2022/06/11 00:14:43;;;;;;;9.40;5.97;;;17.60;99.90;;;;;;5029772;28;20174;-70
2022/06/11 00:17:12;;;;;;;8.75;6.65;;;17.50;99.90;;;;;;5029951;28;20021;-70
2022/06/11 00:19:37;;;;;;;7.95;7.13;;;17.40;99.90;;;;;;5029123;28;20021;-70
2022/06/11 00:22:04;;;;;;;10.10;6.10;;;17.10;99.90;;;;;;5030175;28;20025;-70
2022/06/11 00:24:30;;;;;;;9.80;6.30;;;17.40;99.90;;;;;;5030493;28;20029;-70
2022/06/11 00:26:58;;;;;;;8.30;7.07;;;17.30;99.90;;;;;;5030731;28;20018;-70
2022/06/11 00:29:26;;;;;;;7.90;6.40;;;17.10;99.90;;;;;;5030680;28;20585;-71
2022/06/11 00:31:52;;;;;;;10.23;6.97;;;18.10;99.90;;;;;;5030510;28;20056;-70
2022/06/11 00:34:18;;;;;;;10.23;8.45;;;16.90;99.90;;;;;;5029634;28;20568;-70
2022/06/11 00:36:44;;;;;;;8.85;7.13;;;17.00;99.90;;;;;;5031019;28;20541;-70
2022/06/11 00:39:11;;;;;;;10.65;7.47;;;16.90;99.90;;;;;;5030210;28;20017;-70
2022/06/11 00:41:40;;;;;;;9.07;7.97;;;16.90;99.90;;;;;;5030674;28;20112;-70
2022/06/11 00:44:07;;;;;;;10.07;7.68;;;16.70;99.90;;;;;;5030204;28;20017;-70
2022/06/11 00:46:38;;;;;;;9.35;8.10;;;16.80;99.90;;;;;;5030268;28;20036;-70
2022/06/11 00:49:17;;;;;;;7.40;6.70;;;16.90;99.90;;;;;;5030211;28;20026;-70
2022/06/11 00:51:43;;;;;;;9.07;7.15;;;16.80;99.90;;;;;;5030661;28;20053;-71
2022/06/11 00:54:15;;;;;;;8.30;7.22;;;16.80;99.90;;;;;;5029913;28;20455;-70
2022/06/11 00:56:49;;;;;;;7.88;6.78;;;16.70;99.90;;;;;;5030683;28;20030;-70
2022/06/11 00:59:19;;;;;;;6.95;6.25;;;16.70;99.90;;;;;;5029582;28;20076;-70
2022/06/11 01:01:47;;;;;;;6.22;5.60;;;16.60;99.90;;;;;;5030466;28;20446;-70
2022/06/11 01:04:31;;;;;;;6.65;5.72;;;17.80;99.90;;;;;;5028714;28;20073;-71
2022/06/11 01:07:05;;;;;;;6.22;5.43;;;16.60;99.90;;;;;;5029633;28;20330;-71
2022/06/11 01:09:50;;;;;;;9.23;5.78;;;16.60;99.90;;;;;;5029058;28;20414;-70
2022/06/11 01:12:37;;;;;;;6.43;5.82;;;16.50;99.90;;;;;;5029756;28;20026;-71
2022/06/11 01:15:17;;;;;;;5.75;5.15;;;16.60;99.90;;;;;;5029264;28;20467;-70
2022/06/11 01:18:01;;;;;;;5.82;5.15;;;16.50;99.90;;;;;;5030149;28;20033;-70
2022/06/11 01:20:41;;;;;;;6.05;5.00;;;16.30;99.90;;;;;;5029987;28;20044;-70
2022/06/11 01:23:37;;;;;;;6.10;5.43;;;16.30;99.90;;;;;;5029472;28;20021;-70
2022/06/11 01:26:31;;;;;;;6.00;5.32;;;16.20;99.90;;;;;;5028298;28;20025;-70
2022/06/11 01:29:32;;;;;;;5.43;4.88;;;16.10;99.90;;;;;;5029552;28;20010;-70
2022/06/11 01:32:14;;;;;;;5.68;4.60;;;16.10;99.90;;;;;;5029575;28;20029;-70
2022/06/11 01:35:00;;;;;;;10.90;5.82;;;16.00;99.90;;;;;;5029941;28;20375;-70
2022/06/11 01:37:32;;;;;;;6.03;5.43;;;16.00;99.90;;;;;;5029488;28;20025;-70
2022/06/11 01:40:06;;;;;;;6.07;5.47;;;15.80;99.90;;;;;;5029600;28;20437;-70
2022/06/11 01:42:49;;;;;;;6.32;5.28;;;15.90;99.90;;;;;;5029318;28;20034;-70
2022/06/11 01:45:27;;;;;;;7.78;5.50;;;16.00;99.90;;;;;;5029315;28;20083;-70
2022/06/11 01:47:54;;;;;;;9.93;6.15;;;15.90;99.90;;;;;;5029669;28;20152;-70
2022/06/11 01:50:23;;;;;;;6.18;5.57;;;15.90;99.90;;;;;;5028870;28;20036;-70
2022/06/11 01:53:03;;;;;;;7.75;6.28;;;15.80;99.90;;;;;;5016031;28;20026;-70
2022/06/11 01:55:33;;;;;;;9.52;5.72;;;15.80;99.90;;;;;;5028600;28;20025;-69
2022/06/11 01:58:18;;;;;;;6.78;6.03;;;15.70;99.90;;;;;;5028618;28;20096;-70
2022/06/11 02:01:10;;;;;;;7.93;6.50;;;15.70;99.90;;;;;;5029364;28;20029;-70
2022/06/11 02:03:56;;;;;;;7.38;6.55;;;15.80;99.90;;;;;;5029240;28;20056;-70
2022/06/11 02:06:35;;;;;;;7.32;6.07;;;15.70;99.90;;;;;;5028714;28;20087;-70
2022/06/11 02:09:03;;;;;;;6.80;6.10;;;15.50;99.90;;;;;;5029001;28;20075;-70
2022/06/11 02:11:38;;;;;;;6.95;6.35;;;15.60;99.90;;;;;;5014803;28;20018;-71
2022/06/11 02:14:18;;;;;;;8.63;6.63;;;15.50;99.90;;;;;;5028974;28;20167;-70
2022/06/11 02:17:06;;;;;;;7.20;6.28;;;15.60;99.90;;;;;;5016504;28;20094;-70
2022/06/11 02:19:36;;;;;;;9.80;5.95;;;15.50;99.90;;;;;;5028661;28;20059;-70
2022/06/11 02:22:08;;;;;;;6.88;6.18;;;15.50;99.90;;;;;;5028723;28;20029;-70
2022/06/11 02:24:44;;;;;;;7.70;5.65;;;15.50;99.90;;;;;;5028392;28;20037;-71
2022/06/11 02:27:14;;;;;;;7.57;6.40;;;15.50;99.90;;;;;;5027858;28;20056;-70
2022/06/11 02:29:41;;;;;;;7.55;6.03;;;15.50;99.90;;;;;;5029212;28;20113;-70
2022/06/11 02:32:12;;;;;;;6.82;5.45;;;15.50;99.90;;;;;;5028255;28;20399;-70
2022/06/11 02:34:41;;;;;;;9.00;5.82;;;15.50;99.90;;;;;;5029004;28;20068;-70
2022/06/11 02:37:19;;;;;;;8.77;6.60;;;16.50;99.90;;;;;;5028396;28;20017;-70
2022/06/11 02:39:46;;;;;;;8.73;5.85;;;15.40;99.90;;;;;;5029083;28;20022;-70
2022/06/11 02:42:17;;;;;;;7.25;6.07;;;15.40;99.90;;;;;;5027540;28;20096;-70
2022/06/11 02:44:43;;;;;;;7.20;6.47;;;15.40;99.90;;;;;;5025400;28;20485;-71
2022/06/11 02:47:11;;;;;;;7.40;6.55;;;15.30;99.90;;;;;;5025162;28;20029;-70
2022/06/11 02:49:37;;;;;;;8.52;6.43;;;15.30;99.90;;;;;;5028561;28;20390;-70
2022/06/11 02:52:10;;;;;;;6.57;5.95;;;15.30;99.90;;;;;;5028014;28;20029;-70
2022/06/11 02:54:35;;;;;;;8.30;5.85;;;15.30;99.90;;;;;;5027781;28;20056;-70
2022/06/11 02:57:03;;;;;;;7.60;5.57;;;15.30;99.90;;;;;;5027497;28;20099;-70
2022/06/11 02:59:29;;;;;;;8.70;6.38;;;15.30;99.90;;;;;;5028549;28;20422;-70
2022/06/11 03:01:56;;;;;;;7.40;6.55;;;15.20;99.90;;;;;;5028358;28;20053;-70
2022/06/11 03:04:23;;;;;;;8.55;6.45;;;15.20;99.90;;;;;;5027874;28;20054;-70
2022/06/11 03:06:50;;;;;;;8.10;6.88;;;15.10;99.90;;;;;;5028561;28;20390;-70
2022/06/11 03:09:21;;;;;;;7.80;7.00;;;15.30;99.90;;;;;;5027965;28;20029;-70
2022/06/11 03:11:47;;;;;;;7.32;6.55;;;15.90;99.90;;;;;;5027639;28;20029;-70
2022/06/11 03:14:14;;;;;;;8.20;6.95;;;15.10;99.90;;;;;;5026601;28;20025;-70
2022/06/11 03:16:40;;;;;;;7.93;6.55;;;16.20;99.90;;;;;;5026233;28;20014;-70
2022/06/11 03:19:07;;;;;;;8.40;7.25;;;15.00;99.90;;;;;;5016130;28;20040;-70
2022/06/11 03:21:33;;;;;;;9.70;6.38;;;15.20;99.90;;;;;;5014639;28;20049;-70
2022/06/11 03:23:59;;;;;;;7.32;6.30;;;15.10;99.90;;;;;;5025745;28;20075;-70
2022/06/11 03:26:24;;;;;;;7.70;5.57;;;15.20;99.90;;;;;;5026457;28;20529;-70
2022/06/11 03:28:51;;;;;;;7.10;5.47;;;15.10;99.90;;;;;;5026964;28;20124;-70
2022/06/11 03:31:17;;;;;;;7.45;6.20;;;15.20;99.90;;;;;;5028100;28;20033;-70
2022/06/11 03:33:43;;;;;;;6.35;5.38;;;15.10;99.90;;;;;;5032053;28;20022;-70
2022/06/11 03:36:12;;;;;;;6.55;5.97;;;15.00;99.90;;;;;;5031558;28;20040;-70
2022/06/11 03:38:39;;;;;;;7.72;6.20;;;15.10;99.90;;;;;;5030812;28;20033;-70
2022/06/11 03:41:05;;;;;;;6.82;5.72;;;15.10;99.90;;;;;;5031375;28;20083;-70
2022/06/11 03:43:31;;;;;;;7.72;6.47;;;15.10;99.90;;;;;;5031740;28;20112;-70
2022/06/11 03:45:58;;;;;;;6.78;6.15;;;15.10;99.90;;;;;;5031823;28;20022;-70
2022/06/11 03:48:23;;;;;;;7.00;5.38;;;15.10;99.90;;;;;;5031485;28;20029;-70
2022/06/11 03:50:49;;;;;;;5.97;5.38;;;15.20;99.90;;;;;;5031719;28;20066;-70
2022/06/11 03:53:15;;;;;;;9.80;5.38;;;16.40;99.90;;;;;;5030791;28;20030;-70
2022/06/11 03:55:42;;;;;;;7.50;5.38;;;15.10;99.90;;;;;;5031647;28;20022;-70
2022/06/11 03:58:09;;;;;;;7.80;4.60;;;15.20;99.90;;;;;;5031137;28;20083;-70
2022/06/11 04:03:23;;;;;;;6.00;4.70;;;15.20;99.90;;;;;;5031204;28;20052;-70
2022/06/11 04:05:50;;;;;;;7.25;4.40;;;15.20;99.90;;;;;;5031041;28;20045;-70
2022/06/11 04:08:16;;;;;;;6.82;4.43;;;15.00;99.90;;;;;;5029500;28;20025;-70
2022/06/11 04:10:43;;;;;;;9.55;4.90;;;15.30;99.90;;;;;;5031342;28;20030;-70
2022/06/11 04:13:10;;;;;;;5.57;4.05;;;15.30;99.90;;;;;;5029520;28;20017;-70
2022/06/11 04:15:38;;;;;;;7.82;4.38;;;15.30;99.90;;;;;;5031332;28;20482;-70
2022/06/11 04:18:05;;;;;;;6.53;4.38;;;15.30;99.90;;;;;;5030773;28;20014;-70
2022/06/11 04:20:31;;;;;;;5.30;3.60;;;15.50;99.90;;;;;;5031147;28;20034;-70
2022/06/11 04:22:57;;;;;;;6.13;4.28;;;15.40;99.90;;;;;;5030463;28;20061;-70
2022/06/11 04:25:22;;;;;;;8.18;3.88;;;16.00;99.90;;;;;;5030711;28;20045;-70
2022/06/11 04:27:53;;;;;;;5.85;4.10;;;15.40;99.90;;;;;;5031240;28;20043;-70
2022/06/11 04:30:21;;;;;;;6.95;3.70;;;15.40;99.90;;;;;;5030314;28;20014;-70
2022/06/11 04:32:46;;;;;;;5.10;3.30;;;15.60;99.90;;;;;;5031143;28;20028;-70
2022/06/11 04:35:12;;;;;;;7.35;4.93;;;15.50;99.90;;;;;;5029988;28;20029;-70
2022/06/11 04:37:38;;;;;;;7.53;3.00;;;15.20;99.90;;;;;;5028352;28;20022;-70
2022/06/11 04:40:04;;;;;;;7.70;3.47;;;15.40;99.90;;;;;;5023168;28;20040;-70
2022/06/11 04:42:31;;;;;;;8.18;2.95;;;15.30;99.90;;;;;;5030370;28;20033;-70
2022/06/11 04:44:56;;;;;;;6.13;3.47;;;15.50;99.90;;;;;;5030893;28;20025;-70
2022/06/11 04:47:25;;;;;;;5.10;2.88;;;15.60;99.90;;;;;;5030174;28;20060;-70
2022/06/11 04:49:53;;;;;;;7.65;3.33;;;15.50;99.90;;;;;;5030541;28;20021;-70
2022/06/11 04:52:19;;;;;;;8.13;3.42;;;15.50;99.90;;;;;;5029284;28;20029;-70
2022/06/11 04:54:45;;;;;;;5.80;3.63;;;15.50;99.90;;;;;;5026335;28;20463;-70
2022/06/11 04:57:11;;;;;;;8.32;3.17;;;15.60;99.90;;;;;;5029513;28;20032;-70
2022/06/11 04:59:37;;;;;;;7.78;4.43;;;15.60;99.90;;;;;;5027531;28;20026;-70
2022/06/11 05:02:03;;;;;;;7.20;3.00;;;15.70;99.90;;;;;;5029554;28;20028;-70
2022/06/11 05:04:29;;;;;;;7.20;3.10;;;15.80;99.90;;;;;;5029695;28;20069;-70
2022/06/11 05:06:55;;;;;;;8.15;2.92;;;15.90;99.90;;;;;;5029589;28;20057;-70
2022/06/11 05:09:23;;;;;;;6.72;2.58;;;16.10;99.90;;;;;;5023343;28;20029;-70
2022/06/11 05:11:50;;;;;;;6.95;2.60;;;16.10;99.90;;;;;;5030023;28;20033;-70
2022/06/11 05:14:17;;;;;;;11.23;3.30;;;16.10;99.90;;;;;;5025888;28;20017;-70
2022/06/11 05:16:44;;;;;;;6.25;1.67;;;16.10;99.90;;;;;;5029482;28;20459;-70
2022/06/11 05:19:13;;;;;;;6.68;1.90;;;16.20;99.90;;;;;;5029501;28;20136;-70
2022/06/11 05:21:38;;;;;;;10.32;3.03;;;16.20;99.90;;;;;;5029635;28;20022;-70
2022/06/11 05:24:05;;;;;;;12.00;2.42;;;16.30;99.90;;;;;;5029466;28;20038;-70
2022/06/11 05:26:54;;;;;;;7.97;2.47;;;16.40;99.90;;;;;;5029890;28;20092;-70
2022/06/11 05:29:44;;;;;;;10.70;2.30;;;16.40;99.90;;;;;;5029429;28;20382;-70
2022/06/11 05:32:09;;;;;;;9.95;2.88;;;16.50;99.90;;;;;;5029106;28;20010;-70
2022/06/11 05:34:36;;;;;;;10.52;2.60;;;16.60;99.90;;;;;;5029506;28;20040;-70
2022/06/11 05:37:02;;;;;;;13.20;2.85;;;16.60;99.90;;;;;;5029334;28;20036;-70
2022/06/11 05:39:28;;;;;;;5.60;2.33;;;16.60;99.90;;;;;;5019767;28;20025;-70
2022/06/11 05:41:53;;;;;;;6.20;2.13;;;16.60;99.90;;;;;;5024363;28;20028;-70
2022/06/11 05:44:19;;;;;;;9.45;2.28;;;16.70;99.90;;;;;;5029139;28;20086;-70
2022/06/11 05:46:45;;;;;;;11.93;2.60;;;16.80;99.90;;;;;;5029596;28;20108;-70
2022/06/11 05:49:16;;;;;;;6.30;2.10;;;16.80;99.90;;;;;;5028706;28;20022;-70
2022/06/11 05:51:46;;;;;;;15.23;3.35;;;16.90;99.90;;;;;;5029545;28;20485;-70
2022/06/11 05:54:16;;;;;;;10.80;2.35;;;16.90;99.90;;;;;;5028235;28;20091;-70
2022/06/11 05:56:42;;;;;;;11.95;3.10;;;16.90;99.90;;;;;;5028066;28;20022;-70
2022/06/11 05:59:13;;;;;;;11.38;2.42;;;17.00;99.90;;;;;;5029015;28;20028;-70
2022/06/11 06:01:40;;;;;;;10.75;2.08;;;17.10;99.90;;;;;;5029085;28;20025;-70
2022/06/11 06:04:06;;;;;;;18.10;2.13;;;17.10;99.90;;;;;;5027467;28;21462;-70
2022/06/11 06:06:32;;;;;;;13.05;2.97;;;17.10;99.90;;;;;;5029134;28;20037;-70
2022/06/11 06:08:58;;;;;;;11.88;2.60;;;17.20;99.90;;;;;;5028216;28;20104;-70
2022/06/11 06:11:25;;;;;;;13.70;2.47;;;17.30;99.90;;;;;;5029027;28;20101;-70
2022/06/11 06:13:51;;;;;;;8.13;1.92;;;17.30;99.90;;;;;;5029157;28;20013;-70
2022/06/11 06:16:24;;;;;;;10.80;2.45;;;17.30;99.90;;;;;;5028763;28;20433;-70
2022/06/11 06:18:50;;;;;;;10.38;2.90;;;17.40;99.90;;;;;;5028826;28;20021;-70
2022/06/11 06:21:18;;;;;;;11.45;2.50;;;17.90;99.90;;;;;;5028457;28;20029;-70
2022/06/11 06:23:44;;;;;;;13.10;2.70;;;17.50;99.90;;;;;;5029055;28;20033;-70
2022/06/11 06:26:10;;;;;;;9.23;2.70;;;17.50;99.90;;;;;;5028637;28;20033;-70
2022/06/11 06:28:35;;;;;;;12.07;2.50;;;17.50;99.90;;;;;;5029194;28;20049;-70
2022/06/11 06:31:03;;;;;;;12.43;3.28;;;17.60;99.90;;;;;;5028669;28;20022;-70
2022/06/11 06:33:30;;;;;;;8.10;2.42;;;17.70;99.90;;;;;;5028605;28;20025;-70
2022/06/11 06:35:57;;;;;;;13.93;2.85;;;17.70;99.90;;;;;;5028841;28;20545;-70
2022/06/11 06:38:23;;;;;;;11.20;2.55;;;17.90;99.90;;;;;;5028064;28;20030;-70
2022/06/11 06:40:48;;;;;;;14.13;3.05;;;17.70;99.90;;;;;;5029037;28;20021;-70
2022/06/11 06:43:14;;;;;;;13.90;3.65;;;17.80;99.90;;;;;;5028517;28;20475;-70
2022/06/11 06:45:40;;;;;;;13.68;3.42;;;17.80;99.90;;;;;;5028771;28;20025;-71
2022/06/11 06:48:05;;;;;;;12.68;3.00;;;18.80;99.90;;;;;;5028148;28;20025;-70
2022/06/11 06:50:31;;;;;;;12.93;3.40;;;17.90;99.90;;;;;;5028705;28;20503;-70
2022/06/11 06:52:57;;;;;;;10.27;3.00;;;17.80;99.90;;;;;;5028770;28;20033;-70
2022/06/11 06:55:22;;;;;;;11.15;3.17;;;18.70;99.90;;;;;;5028389;28;20021;-70
2022/06/11 06:57:49;;;;;;;12.50;3.42;;;18.40;99.90;;;;;;5029085;28;20021;-69
2022/06/11 07:00:17;;;;;;;11.30;2.67;;;18.00;99.90;;;;;;5028097;28;20024;-67
2022/06/11 07:02:43;;;;;;;13.25;3.42;;;18.00;99.90;;;;;;5028004;28;20033;-67
2022/06/11 07:05:09;;;;;;;12.10;2.55;;;18.10;99.90;;;;;;5027788;28;20049;-67
2022/06/11 07:07:35;;;;;;;11.30;3.03;;;18.10;99.90;;;;;;5030208;28;20057;-67
2022/06/11 07:10:02;;;;;;;9.82;3.15;;;18.10;99.90;;;;;;5031862;28;20426;-67
2022/06/11 07:12:28;;;;;;;11.02;2.83;;;18.20;99.90;;;;;;5032227;28;20084;-67
2022/06/11 07:14:54;;;;;;;12.77;2.30;;;18.20;99.90;;;;;;5031902;28;20077;-67
2022/06/11 07:17:20;;;;;;;11.13;2.63;;;18.30;99.90;;;;;;5027025;28;20021;-67
2022/06/11 07:19:57;;;;;;;13.80;2.47;;;18.20;99.90;;;;;;5031487;28;20533;-67
2022/06/11 07:22:31;;;;;;;13.15;3.08;;;18.00;99.90;;;;;;5026052;28;20022;-67
2022/06/11 07:24:58;;;;;;;11.38;3.08;;;18.30;99.90;;;;;;5031536;28;20085;-67
2022/06/11 07:27:26;;;;;;;14.40;4.03;;;18.30;99.90;;;;;;5031685;28;20109;-67
2022/06/11 07:30:01;;;;;;;18.25;3.40;;;18.60;99.90;;;;;;5031370;28;20025;-67
2022/06/11 07:32:29;;;;;;;9.88;2.80;;;21.00;99.90;;;;;;5029869;28;20372;-67
2022/06/11 07:34:55;;;;;;;11.70;3.22;;;18.60;99.90;;;;;;5025734;28;20025;-67
2022/06/11 07:37:21;;;;;;;13.40;2.72;;;18.80;99.90;;;;;;5031180;28;20028;-67
2022/06/11 07:39:46;;;;;;;9.88;2.50;;;18.80;99.90;;;;;;5031905;28;20017;-67
2022/06/11 07:42:12;;;;;;;9.90;2.83;;;18.90;99.90;;;;;;5031235;28;20030;-66
2022/06/11 07:44:38;;;;;;;8.73;1.90;;;19.10;99.90;;;;;;5031799;28;20430;-67
2022/06/11 07:47:05;;;;;;;9.43;2.53;;;19.10;99.90;;;;;;5030888;28;20033;-67
2022/06/11 07:49:31;;;;;;;12.70;2.75;;;19.00;99.90;;;;;;5031467;28;20021;-67
2022/06/11 07:51:57;;;;;;;11.80;2.78;;;19.10;99.90;;;;;;5031689;28;20123;-67
2022/06/11 07:54:23;;;;;;;10.98;2.10;;;19.20;99.90;;;;;;5031148;28;20033;-67
2022/06/11 07:56:48;;;;;;;13.55;2.92;;;19.20;99.90;;;;;;5031567;28;20026;-67
2022/06/11 07:59:14;;;;;;;9.75;2.83;;;19.30;99.90;;;;;;5030909;28;20087;-67
2022/06/11 08:01:40;;;;;;;11.57;2.67;;;19.30;99.90;;;;;;5030399;28;20478;-67
2022/06/11 08:04:05;;;;;;;13.65;3.20;;;19.40;99.90;;;;;;5030788;28;20427;-67
2022/06/11 08:06:31;;;;;;;10.52;2.08;;;19.40;99.90;;;;;;5030094;28;20085;-67
2022/06/11 08:08:57;;;;;;;10.02;1.63;;;19.50;99.90;;;;;;5031004;28;20029;-67
2022/06/11 08:11:23;;;;;;;9.52;1.98;;;19.30;99.80;;;;;;5030735;28;20068;-67
2022/06/11 08:13:49;;;;;;;13.95;2.85;;;19.40;99.50;;;;;;5030855;28;20025;-67
2022/06/11 08:16:15;;;;;;;9.05;2.00;;;20.00;99.70;;;;;;5029993;28;20033;-67
2022/06/11 08:18:41;;;;;;;10.65;2.55;;;19.60;99.60;;;;;;5030555;28;20029;-67
2022/06/11 08:21:08;;;;;;;11.40;2.55;;;19.70;99.00;;;;;;5030551;28;20045;-67
2022/06/11 08:23:34;;;;;;;10.73;1.92;;;19.80;99.00;;;;;;5030859;28;20037;-67
2022/06/11 08:25:59;;;;;;;7.82;1.92;;;19.80;99.10;;;;;;5030207;28;20021;-67
2022/06/11 08:28:26;;;;;;;13.38;2.30;;;20.50;98.90;;;;;;5029709;28;20117;-66
2022/06/11 08:30:51;;;;;;;15.95;3.33;;;19.90;98.30;;;;;;5030252;28;20021;-66
2022/06/11 08:33:18;;;;;;;13.00;2.30;;;20.10;98.00;;;;;;5024379;28;20130;-67
2022/06/11 08:35:44;;;;;;;7.53;1.95;;;20.10;97.70;;;;;;5030196;28;20029;-66
2022/06/11 08:38:11;;;;;;;8.57;2.20;;;20.20;97.50;;;;;;5030349;28;20022;-67
2022/06/11 08:40:49;;;;;;;12.00;2.28;;;20.20;97.50;;;;;;5030316;28;20071;-66
2022/06/11 08:43:32;;;;;;;12.35;2.35;;;20.30;96.60;;;;;;5029662;28;20516;-68
2022/06/11 08:46:07;;;;;;;9.68;1.83;;;20.30;95.90;;;;;;5030201;28;20018;-67
2022/06/11 08:49:06;;;;;;;9.90;2.20;;;20.30;95.90;;;;;;5030581;28;20502;-66
2022/06/11 08:51:42;;;;;;;8.50;1.85;;;20.20;96.00;;;;;;5030322;28;20064;-67
2022/06/11 08:54:32;;;;;;;12.07;2.75;;;20.30;97.00;;;;;;5029782;28;20104;-66
2022/06/11 08:57:01;;;;;;;11.73;2.88;;;20.30;95.70;;;;;;5019838;28;20410;-66
2022/06/11 08:59:45;;;;;;;9.07;2.25;;;20.30;95.30;;;;;;5029596;28;20470;-66
2022/06/11 09:02:30;;;;;;;9.63;2.15;;;20.40;95.00;;;;;;5029733;28;20021;-67
2022/06/11 09:05:16;;;;;;;11.35;2.13;;;20.50;94.90;;;;;;5019896;28;20478;-67
2022/06/11 09:07:51;;;;;;;14.65;3.22;;;20.50;95.10;;;;;;5030183;28;20022;-67
2022/06/11 09:10:29;;;;;;;12.70;2.90;;;20.50;94.90;;;;;;5019547;28;20026;-66
2022/06/11 09:13:30;;;;;;;12.52;2.33;;;20.60;95.70;;;;;;5028925;28;20087;-67
2022/06/11 09:16:34;;;;;;;13.82;3.00;;;20.50;95.20;;;;;;5029916;28;20048;-67
2022/06/11 09:19:34;;;;;;;16.73;2.65;;;20.60;95.70;;;;;;5000019;28;20041;-67
2022/06/11 09:22:16;;;;;;;8.43;2.20;;;21.00;94.50;;;;;;5027444;28;20025;-67
2022/06/11 09:25:00;;;;;;;7.43;2.05;;;21.10;94.20;;;;;;5029649;28;20478;-67
2022/06/11 09:27:39;;;;;;;10.70;2.65;;;21.40;94.70;;;;;;5017006;28;20030;-67
2022/06/11 09:30:14;;;;;;;12.90;3.38;;;21.50;94.50;;;;;;5028479;28;20029;-66
2022/06/11 09:32:57;;;;;;;10.07;2.45;;;21.50;94.40;;;;;;5026323;28;20033;-66
2022/06/11 09:35:55;;;;;;;10.93;2.10;;;21.50;93.50;;;;;;5029050;28;20026;-66
2022/06/11 09:38:37;;;;;;;12.35;2.15;;;21.50;93.70;;;;;;5015600;28;20726;-67
2022/06/11 09:41:12;;;;;;;8.48;2.78;;;21.40;93.10;;;;;;5028652;28;20143;-67
2022/06/11 09:43:51;;;;;;;8.77;2.53;;;21.50;93.10;;;;;;5029633;28;20037;-67
2022/06/11 09:46:24;;;;;;;9.82;2.13;;;21.60;93.20;;;;;;5028595;28;20040;-67
2022/06/11 09:49:08;;;;;;;9.88;2.55;;;21.60;93.80;;;;;;5029539;28;20029;-67
2022/06/11 09:51:36;;;;;;;11.70;2.15;;;21.50;92.60;;;;;;5015933;28;20048;-67
2022/06/11 09:54:19;;;;;;;6.57;2.40;;;21.60;93.80;;;;;;5028863;28;20044;-67
2022/06/11 09:56:50;;;;;;;8.35;2.72;;;21.70;93.00;;;;;;5028838;28;20057;-67
2022/06/11 09:59:18;;;;;;;8.95;2.85;;;22.00;93.00;;;;;;5028687;28;20121;-67
2022/06/11 10:01:50;;;;;;;10.27;2.78;;;22.10;92.50;;;;;;5029421;28;20022;-66
2022/06/11 10:04:21;;;;;;;10.45;2.30;;;22.30;92.40;;;;;;5027648;28;20110;-66
2022/06/11 10:06:57;;;;;;;9.77;2.80;;;22.40;93.40;;;;;;5028381;28;20112;-66
2022/06/11 10:09:30;;;;;;;15.45;2.90;;;22.40;93.20;;;;;;5028552;28;20037;-67
2022/06/11 10:12:20;;;;;;;12.55;3.35;;;22.50;92.30;;;;;;5028536;28;20049;-67
2022/06/11 10:14:58;;;;;;;12.60;3.10;;;22.50;92.30;;;;;;5028360;28;20041;-68
2022/06/11 10:17:29;;;;;;;10.25;2.75;;;22.40;92.30;;;;;;5028595;28;20017;-67
2022/06/11 10:20:16;;;;;;;12.45;3.25;;;22.30;92.60;;;;;;5028719;28;20421;-67
2022/06/11 10:22:54;;;;;;;12.82;3.65;;;22.10;92.80;;;;;;5025717;28;20052;-67
2022/06/11 10:25:32;;;;;;;12.98;2.58;;;22.20;92.00;;;;;;5027247;28;20013;-66
2022/06/11 10:28:20;;;;;;;11.02;2.70;;;22.00;92.20;;;;;;5028720;28;20049;-67
2022/06/11 10:30:56;;;;;;;13.43;2.95;;;22.70;93.50;;;;;;5028667;28;20017;-67
2022/06/11 10:33:41;;;;;;;10.85;2.63;;;21.50;92.40;;;;;;5027474;28;20026;-67
2022/06/11 10:36:22;;;;;;;9.57;2.42;;;21.90;92.50;;;;;;5028353;28;20025;-66
2022/06/11 10:38:58;;;;;;;13.27;3.72;;;21.90;93.50;;;;;;5028540;28;20059;-66
2022/06/11 10:41:46;;;;;;;16.77;3.42;;;23.00;93.70;;;;;;5030581;28;20018;-67
2022/06/11 10:44:44;;;;;;;7.72;1.92;;;22.10;92.10;;;;;;5031957;28;20049;-66
2022/06/11 10:47:28;;;;;;;14.43;2.65;;;22.20;92.40;;;;;;5028062;28;20025;-67
2022/06/11 10:50:09;;;;;;;14.45;2.85;;;22.10;93.20;;;;;;5032192;28;20116;-66
2022/06/11 10:52:46;;;;;;;10.68;2.08;;;22.10;92.40;;;;;;5032546;28;20033;-67
2022/06/11 10:55:44;;;;;;;17.33;2.47;;;22.10;92.10;;;;;;5031479;28;20071;-68
2022/06/11 10:58:28;;;;;;;13.85;2.15;;;22.20;92.30;;;;;;5018451;28;20033;-68
2022/06/11 11:01:02;;;;;;;11.35;2.58;;;22.40;91.90;;;;;;5029507;28;20088;-68
2022/06/11 11:03:31;;;;;;;10.40;2.42;;;22.70;91.70;;;;;;5031668;28;20363;-68
2022/06/11 11:06:04;;;;;;;10.50;2.58;;;22.60;91.20;;;;;;5031499;28;20395;-68
2022/06/11 11:08:30;;;;;;;9.73;2.40;;;22.70;92.20;;;;;;5031824;28;20025;-68
2022/06/11 11:10:58;;;;;;;10.48;2.55;;;22.80;91.70;;;;;;5029056;28;20505;-68
2022/06/11 11:13:27;;;;;;;11.00;2.35;;;23.60;92.00;;;;;;5029683;28;20529;-67
2022/06/11 11:16:13;;;;;;;12.57;3.03;;;22.70;91.20;;;;;;5025232;28;20037;-66
2022/06/11 11:18:45;;;;;;;11.57;2.70;;;22.80;90.90;;;;;;5025970;28;20029;-67
2022/06/11 11:21:24;;;;;;;5.80;2.08;;;22.50;91.80;;;;;;5027396;28;20026;-67
2022/06/11 11:23:53;;;;;;;12.70;2.38;;;22.50;92.10;;;;;;5020164;28;20044;-68
2022/06/11 11:26:24;;;;;;;13.93;2.25;;;22.60;91.70;;;;;;5031590;28;20037;-67
2022/06/11 11:29:04;;;;;;;10.70;2.38;;;22.70;91.30;;;;;;5032064;28;20156;-67
2022/06/11 11:31:45;;;;;;;9.05;2.13;;;22.90;91.60;;;;;;5031905;28;20079;-67
2022/06/11 11:34:16;;;;;;;7.68;1.80;;;23.10;91.40;;;;;;5031593;28;20044;-68
2022/06/11 11:36:42;;;;;;;12.63;1.92;;;23.40;91.00;;;;;;5031165;28;20037;-67
2022/06/11 11:39:17;;;;;;;12.65;2.03;;;23.90;90.70;;;;;;5029995;28;20022;-67
2022/06/11 11:42:07;;;;;;;10.43;2.67;;;23.50;89.70;;;;;;5031611;28;20037;-67
2022/06/11 11:44:51;;;;;;;6.75;1.85;;;23.40;89.60;;;;;;5031605;28;20038;-67
2022/06/11 11:47:32;;;;;;;7.22;1.70;;;23.40;90.40;;;;;;5031198;28;20033;-67
2022/06/11 11:50:13;;;;;;;10.43;1.90;;;23.50;88.20;;;;;;5030799;28;20044;-67
2022/06/11 11:52:44;;;;;;;12.52;2.30;;;23.40;90.00;;;;;;5029756;28;20048;-68
2022/06/11 11:55:25;;;;;;;8.63;2.25;;;23.60;89.70;;;;;;5031114;28;20100;-67
2022/06/11 11:57:59;;;;;;;10.35;1.75;;;23.80;87.60;;;;;;5031199;28;20087;-68
2022/06/11 12:00:27;;;;;;;10.15;1.90;;;23.60;88.90;;;;;;5030389;28;20126;-67
2022/06/11 12:03:05;;;;;;;12.93;2.30;;;23.80;86.40;;;;;;5029409;28;20033;-67
2022/06/11 12:05:46;;;;;;;11.70;2.33;;;23.90;89.10;;;;;;5028893;28;20033;-67
2022/06/11 12:08:21;;;;;;;11.32;1.83;;;23.80;88.90;;;;;;5029199;28;20021;-67
2022/06/11 12:10:50;;;;;;;10.38;1.90;;;23.70;88.50;;;;;;5030010;28;20184;-67
2022/06/11 12:13:44;;;;;;;11.52;2.35;;;23.60;88.70;;;;;;5030430;28;20100;-67
2022/06/11 12:16:15;;;;;;;;;;;23.50;87.60;;;;;;5030481;28;20120;-67
2022/06/11 12:18:46;;;;;;;7.03;1.90;;;23.60;89.80;;;;;;5030017;28;19905;-67
2022/06/11 12:21:16;;;;;;;9.57;1.92;;;23.80;89.40;;;;;;5030003;28;20075;-67
2022/06/11 12:24:06;;;;;;;8.25;2.03;;;24.70;89.10;;;;;;5030039;28;20037;-67
2022/06/11 12:26:37;;;;;;;11.27;2.30;;;24.10;88.00;;;;;;5030467;28;20022;-67
2022/06/11 12:29:05;;;;;;;11.05;2.83;;;24.30;87.50;;;;;;5021724;28;20272;-67
2022/06/11 12:31:31;;;;;;;13.65;4.10;;;24.30;86.40;;;;;;5030699;28;20048;-67
2022/06/11 12:33:57;;;;;;;10.43;1.90;;;24.30;86.50;;;;;;5030742;28;20112;-67
2022/06/11 12:37:02;;;;;;;12.80;2.33;;;24.30;86.80;;;;;;5029857;28;20413;-67
2022/06/11 12:40:06;;;;;;;7.45;1.90;;;24.50;87.30;;;;;;5030000;28;20030;-67
2022/06/11 12:42:49;;;;;;;10.30;2.70;;;24.60;84.90;;;;;;5028514;28;20053;-67
2022/06/11 12:45:38;;;;;;;7.07;1.63;;;24.40;84.40;;;;;;5030072;28;20147;-67
2022/06/11 12:48:28;;;;;;;10.05;2.22;;;24.40;86.50;;;;;;5023411;28;20029;-67
2022/06/11 12:51:01;;;;;;;8.60;2.25;;;24.50;84.80;;;;;;5028489;28;20030;-66
2022/06/11 12:54:08;;;;;;;9.50;2.38;;;24.50;86.20;;;;;;5030129;28;20025;-67
2022/06/11 12:57:01;;;;;;;9.00;2.05;;;24.50;84.20;;;;;;5027469;28;20044;-67
2022/06/11 12:59:51;;;;;;;8.63;2.05;;;24.50;84.50;;;;;;5029157;28;20028;-67
2022/06/11 13:02:47;;;;;;;12.88;2.30;;;24.70;83.80;;;;;;5028864;28;20019;-65
2022/06/11 13:05:27;;;;;;;10.63;2.70;;;24.60;85.60;;;;;;5019585;28;20033;-68
2022/06/11 13:08:13;;;;;;;8.80;2.15;;;24.70;83.70;;;;;;5030060;28;20032;-68
2022/06/11 13:10:53;;;;;;;12.80;2.47;;;24.80;82.80;;;;;;5028965;28;20473;-67
2022/06/11 13:13:43;;;;;;;9.73;2.53;;;25.10;82.80;;;;;;5029651;28;20032;-67